createdAt,value
2018-09-29T00:01:19.980Z,1.60
2018-09-29T00:03:48.767Z,1.13
2018-09-29T00:06:17.537Z,1.30
2018-09-29T00:08:46.297Z,1.40
2018-09-29T00:11:15.096Z,1.10
2018-09-29T00:13:43.873Z,1.50
2018-09-29T00:16:14.858Z,1.10
2018-09-29T00:18:44.263Z,1.10
2018-09-29T00:21:13.027Z,0.97
2018-09-29T00:23:41.861Z,1.30
2018-09-29T00:26:10.646Z,0.90
2018-09-29T00:28:39.461Z,1.43
2018-09-29T00:31:08.274Z,0.70
2018-09-29T00:33:38.440Z,0.80
2018-09-29T00:36:07.239Z,1.33
2018-09-29T00:38:36.038Z,1.53
2018-09-29T00:41:04.816Z,1.07
2018-09-29T00:43:33.627Z,1.20
2018-09-29T00:46:02.440Z,0.77
2018-09-29T00:48:31.253Z,1.27
2018-09-29T00:51:00.315Z,1.20
2018-09-29T00:53:29.160Z,1.33
2018-09-29T00:55:57.917Z,1.33
2018-09-29T00:58:26.744Z,1.40
2018-09-29T01:00:55.523Z,1.40
2018-09-29T01:03:24.361Z,1.00
2018-09-29T01:05:53.197Z,1.20
2018-09-29T01:08:22.017Z,1.10
2018-09-29T01:10:51.113Z,0.90
2018-09-29T01:13:19.865Z,1.20
2018-09-29T01:15:48.633Z,1.50
2018-09-29T01:18:17.466Z,1.23
2018-09-29T01:20:46.269Z,1.60
2018-09-29T01:23:15.140Z,1.33
2018-09-29T01:25:43.980Z,1.13
2018-09-29T01:28:12.911Z,0.83
2018-09-29T01:30:41.747Z,1.10
2018-09-29T01:33:10.521Z,0.90
2018-09-29T01:35:39.312Z,0.83
2018-09-29T01:38:08.174Z,1.40
2018-09-29T01:40:37.038Z,0.90
2018-09-29T01:43:05.806Z,1.10
2018-09-29T01:45:34.578Z,1.47
2018-09-29T01:48:03.434Z,1.40
2018-09-29T01:50:32.328Z,1.20
2018-09-29T01:53:01.164Z,1.53
2018-09-29T01:55:29.959Z,1.20
2018-09-29T01:57:58.772Z,1.07
2018-09-29T02:00:27.553Z,1.33
2018-09-29T02:02:56.468Z,1.00
2018-09-29T02:05:25.229Z,1.00
2018-09-29T02:07:54.006Z,1.57
2018-09-29T02:10:23.089Z,1.17
2018-09-29T02:12:51.808Z,0.93
2018-09-29T02:15:20.594Z,1.30
2018-09-29T02:17:49.365Z,1.37
2018-09-29T02:20:18.195Z,1.57
2018-09-29T02:22:46.946Z,1.50
2018-09-29T02:25:15.721Z,1.17
2018-09-29T02:27:44.531Z,1.10
2018-09-29T02:30:13.270Z,0.90
2018-09-29T02:32:42.117Z,1.70
2018-09-29T02:35:10.878Z,1.30
2018-09-29T02:37:39.644Z,1.70
2018-09-29T02:40:08.522Z,1.40
2018-09-29T02:42:37.317Z,1.00
2018-09-29T02:45:06.664Z,1.70
2018-09-29T02:47:35.451Z,1.23
2018-09-29T02:50:04.245Z,1.40
2018-09-29T02:52:33.120Z,1.23
2018-09-29T02:55:02.414Z,1.37
2018-09-29T02:57:31.224Z,1.17
2018-09-29T03:00:00.011Z,1.30
2018-09-29T03:02:28.793Z,0.40
2018-09-29T03:04:57.575Z,0.70
2018-09-29T03:07:26.452Z,1.37
2018-09-29T03:09:55.202Z,1.37
2018-09-29T03:12:23.985Z,1.47
2018-09-29T03:14:52.842Z,1.33
2018-09-29T03:17:21.632Z,1.40
2018-09-29T03:19:50.421Z,1.03
2018-09-29T03:22:19.196Z,1.27
2018-09-29T03:24:48.369Z,1.80
2018-09-29T03:27:17.198Z,1.17
2018-09-29T03:29:46.129Z,1.33
2018-09-29T03:32:14.924Z,1.50
2018-09-29T03:34:43.807Z,0.90
2018-09-29T03:37:12.618Z,0.80
2018-09-29T03:39:41.402Z,1.30
2018-09-29T03:42:10.222Z,1.27
2018-09-29T03:44:39.010Z,1.10
2018-09-29T03:47:07.878Z,1.20
2018-09-29T03:49:36.649Z,1.17
2018-09-29T03:52:05.494Z,1.23
2018-09-29T03:54:34.283Z,1.00
2018-09-29T03:57:03.089Z,1.13
2018-09-29T03:59:31.870Z,1.60
2018-09-29T04:02:00.662Z,1.50
2018-09-29T04:04:29.589Z,1.00
2018-09-29T04:06:58.384Z,1.10
2018-09-29T04:09:27.273Z,1.27
2018-09-29T04:11:56.169Z,1.33
2018-09-29T04:14:24.970Z,0.93
2018-09-29T04:16:53.745Z,1.40
2018-09-29T04:19:22.582Z,1.10
2018-09-29T04:21:51.349Z,1.83
2018-09-29T04:24:20.192Z,1.60
2018-09-29T04:26:49.029Z,1.83
2018-09-29T04:29:18.474Z,1.40
2018-09-29T04:31:47.300Z,1.30
2018-09-29T04:34:16.049Z,1.27
2018-09-29T04:36:45.105Z,1.40
2018-09-29T04:39:14.857Z,1.20
2018-09-29T04:41:43.682Z,1.27
2018-09-29T04:44:12.856Z,1.10
2018-09-29T04:46:42.379Z,1.30
2018-09-29T04:49:11.281Z,1.47
2018-09-29T04:51:40.074Z,1.43
2018-09-29T04:54:09.005Z,1.10
2018-09-29T04:56:37.767Z,1.47
2018-09-29T04:59:06.545Z,1.80
2018-09-29T05:01:35.567Z,1.33
2018-09-29T05:04:04.324Z,1.43
2018-09-29T05:06:33.195Z,1.13
2018-09-29T05:09:01.932Z,1.40
2018-09-29T05:11:30.672Z,1.20
2018-09-29T05:14:10.281Z,1.30
2018-09-29T05:16:46.962Z,0.70
2018-09-29T05:19:17.550Z,1.10
2018-09-29T05:21:49.682Z,0.93
2018-09-29T05:24:36.634Z,2.13
2018-09-29T05:27:18.085Z,1.60
2018-09-29T05:29:55.813Z,1.30
2018-09-29T05:32:42.413Z,1.57
2018-09-29T05:35:47.407Z,1.70
2018-09-29T05:38:21.711Z,1.37
2018-09-29T05:40:52.025Z,1.53
2018-09-29T05:43:35.854Z,1.60
2018-09-29T05:46:16.423Z,1.60
2018-09-29T05:48:47.661Z,1.90
2018-09-29T05:51:19.703Z,2.20
2018-09-29T05:53:51.968Z,1.27
2018-09-29T05:56:27.182Z,1.83
2018-09-29T05:59:07.622Z,1.47
2018-09-29T06:01:37.098Z,1.70
2018-09-29T06:04:05.910Z,1.50
2018-09-29T06:06:34.687Z,1.87
2018-09-29T06:09:05.171Z,1.37
2018-09-29T06:11:34.373Z,1.73
2018-09-29T06:14:03.267Z,2.10
2018-09-29T06:16:32.075Z,1.50
2018-09-29T06:19:00.849Z,2.10
2018-09-29T06:21:29.569Z,1.83
2018-09-29T06:23:58.378Z,2.30
2018-09-29T06:26:27.188Z,1.63
2018-09-29T06:28:55.973Z,1.60
2018-09-29T06:31:25.030Z,1.73
2018-09-29T06:33:53.821Z,1.87
2018-09-29T06:36:23.193Z,1.47
2018-09-29T06:38:53.123Z,1.33
2018-09-29T06:41:23.667Z,1.60
2018-09-29T06:43:54.047Z,1.27
2018-09-29T06:46:23.192Z,1.07
2018-09-29T06:48:53.790Z,1.07
2018-09-29T06:51:24.103Z,1.27
2018-09-29T06:53:52.939Z,1.07
2018-09-29T06:56:23.389Z,1.80
2018-09-29T06:58:52.295Z,1.30
2018-09-29T07:01:25.280Z,1.23
2018-09-29T07:03:54.169Z,1.67
2018-09-29T07:06:23.426Z,1.60
2018-09-29T07:08:52.267Z,1.40
2018-09-29T07:11:21.097Z,1.87
2018-09-29T07:13:49.958Z,1.87
2018-09-29T07:16:18.785Z,2.10
2018-09-29T07:18:47.874Z,1.60
2018-09-29T07:21:16.642Z,1.47
2018-09-29T07:23:45.443Z,1.90
2018-09-29T07:26:14.277Z,1.80
2018-09-29T07:28:43.075Z,2.60
2018-09-29T07:31:11.911Z,2.20
2018-09-29T07:33:41.010Z,2.70
2018-09-29T07:36:10.628Z,3.73
2018-09-29T07:38:39.780Z,3.50
2018-09-29T07:41:08.584Z,4.90
2018-09-29T07:43:37.330Z,4.47
2018-09-29T07:46:06.233Z,3.50
2018-09-29T07:48:35.038Z,2.80
2018-09-29T07:51:03.816Z,3.00
2018-09-29T07:53:32.603Z,2.53
2018-09-29T07:56:01.521Z,2.40
2018-09-29T07:58:30.290Z,2.40
2018-09-29T08:01:04.327Z,2.73
2018-09-29T08:03:33.869Z,3.40
2018-09-29T08:06:03.075Z,2.13
2018-09-29T08:08:35.029Z,2.10
2018-09-29T08:11:05.644Z,2.20
2018-09-29T08:13:36.566Z,1.83
2018-09-29T08:16:08.295Z,2.67
2018-09-29T08:18:37.116Z,2.00
2018-09-29T08:21:06.069Z,2.67
2018-09-29T08:23:35.361Z,2.70
2018-09-29T08:26:09.187Z,2.00
2018-09-29T08:28:39.750Z,1.70
2018-09-29T08:31:09.875Z,2.20
2018-09-29T08:33:40.585Z,1.90
2018-09-29T08:36:10.707Z,1.97
2018-09-29T08:38:40.863Z,2.40
2018-09-29T08:41:09.962Z,2.20
2018-09-29T08:43:39.232Z,1.53
2018-09-29T08:46:08.286Z,1.20
2018-09-29T08:48:38.752Z,1.53
2018-09-29T08:51:08.934Z,1.30
2018-09-29T08:54:11.427Z,1.77
2018-09-29T08:56:43.761Z,1.03
2018-09-29T08:59:17.545Z,1.10
2018-09-29T09:01:48.940Z,1.10
2018-09-29T09:04:18.253Z,1.23
2018-09-29T09:06:47.419Z,1.40
2018-09-29T09:09:16.191Z,1.00
2018-09-29T09:11:45.254Z,1.80
2018-09-29T09:14:14.104Z,1.97
2018-09-29T09:16:42.937Z,1.00
2018-09-29T09:19:11.989Z,1.23
2018-09-29T09:21:40.811Z,1.07
2018-09-29T09:24:09.734Z,1.00
2018-09-29T09:26:38.546Z,1.60
2018-09-29T09:29:07.375Z,1.00
2018-09-29T09:31:36.325Z,1.00
2018-09-29T09:34:05.104Z,0.80
2018-09-29T09:36:33.906Z,2.40
2018-09-29T09:39:02.776Z,1.70
2018-09-29T09:41:31.545Z,1.20
2018-09-29T09:44:00.325Z,1.50
2018-09-29T09:46:29.128Z,1.10
2018-09-29T09:48:58.135Z,1.00
2018-09-29T09:51:26.944Z,0.90
2018-09-29T09:53:55.736Z,1.17
2018-09-29T09:56:24.612Z,1.30
2018-09-29T09:58:53.480Z,1.60
2018-09-29T10:01:27.864Z,1.20
2018-09-29T10:03:56.640Z,1.40
2018-09-29T10:06:25.555Z,1.20
2018-09-29T10:08:54.339Z,1.30
2018-09-29T10:11:23.149Z,1.30
2018-09-29T10:13:51.948Z,1.20
2018-09-29T10:16:20.773Z,1.07
2018-09-29T10:18:49.628Z,0.87
2018-09-29T10:21:18.421Z,0.80
2018-09-29T10:23:47.321Z,1.10
2018-09-29T10:26:16.117Z,1.00
2018-09-29T10:28:44.893Z,1.00
2018-09-29T10:31:13.866Z,1.13
2018-09-29T10:33:42.817Z,1.80
2018-09-29T10:36:11.652Z,1.10
2018-09-29T10:38:40.428Z,1.60
2018-09-29T10:41:09.989Z,1.03
2018-09-29T10:43:38.873Z,1.23
2018-09-29T10:46:07.706Z,1.30
2018-09-29T10:48:36.538Z,1.30
2018-09-29T10:51:05.518Z,1.30
2018-09-29T10:53:34.372Z,1.60
2018-09-29T10:56:03.220Z,1.10
2018-09-29T10:58:32.024Z,1.00
2018-09-29T11:01:00.931Z,1.00
2018-09-29T11:03:29.764Z,1.27
2018-09-29T11:05:58.696Z,1.23
2018-09-29T11:08:27.530Z,1.23
2018-09-29T11:10:56.294Z,0.93
2018-09-29T11:13:25.100Z,1.40
2018-09-29T11:15:53.831Z,1.10
2018-09-29T11:18:23.453Z,1.10
2018-09-29T11:20:53.882Z,1.03
2018-09-29T11:23:30.635Z,1.00
2018-09-29T11:25:59.891Z,0.63
2018-09-29T11:28:31.637Z,0.60
2018-09-29T11:31:00.416Z,0.67
2018-09-29T11:33:31.741Z,1.37
2018-09-29T11:36:02.378Z,1.27
2018-09-29T11:38:33.432Z,1.03
2018-09-29T11:41:03.637Z,0.80
2018-09-29T11:43:32.764Z,0.97
2018-09-29T11:46:01.576Z,0.87
2018-09-29T11:48:30.354Z,1.30
2018-09-29T11:50:59.177Z,1.07
2018-09-29T11:53:27.999Z,1.50
2018-09-29T11:55:56.834Z,1.90
2018-09-29T11:58:25.683Z,1.10
2018-09-29T12:00:54.517Z,1.00
2018-09-29T12:03:23.369Z,1.23
2018-09-29T12:05:52.187Z,1.70
2018-09-29T12:08:21.048Z,1.07
2018-09-29T12:10:49.876Z,1.17
2018-09-29T12:13:18.657Z,0.83
2018-09-29T12:15:47.453Z,1.00
2018-09-29T12:18:16.422Z,1.00
2018-09-29T12:20:45.389Z,1.10
2018-09-29T12:23:14.253Z,1.40
2018-09-29T12:25:43.069Z,0.80
2018-09-29T12:28:11.864Z,1.57
2018-09-29T12:30:40.641Z,1.07
2018-09-29T12:33:09.792Z,1.03
2018-09-29T12:35:38.609Z,1.20
2018-09-29T12:38:07.389Z,1.03
2018-09-29T12:40:36.135Z,0.87
2018-09-29T12:43:04.964Z,0.73
2018-09-29T12:45:33.805Z,1.10
2018-09-29T12:48:02.624Z,1.27
2018-09-29T12:50:31.471Z,1.70
2018-09-29T12:53:00.294Z,1.30
2018-09-29T12:55:29.047Z,0.93
2018-09-29T12:57:57.878Z,0.80
2018-09-29T13:00:26.626Z,1.00
2018-09-29T13:02:56.018Z,1.07
2018-09-29T13:05:25.818Z,1.00
2018-09-29T13:07:54.830Z,1.10
2018-09-29T13:10:23.686Z,0.80
2018-09-29T13:12:52.457Z,1.00
2018-09-29T13:15:21.241Z,1.53
2018-09-29T13:17:50.083Z,1.20
2018-09-29T13:20:18.980Z,1.13
2018-09-29T13:22:47.742Z,1.03
2018-09-29T13:25:16.545Z,0.90
2018-09-29T13:27:45.347Z,1.43
2018-09-29T13:30:14.190Z,1.40
2018-09-29T13:32:43.079Z,1.10
2018-09-29T13:35:11.906Z,1.00
2018-09-29T13:37:40.702Z,0.90
2018-09-29T13:40:09.610Z,1.13
2018-09-29T13:42:38.430Z,0.80
2018-09-29T13:45:07.273Z,1.20
2018-09-29T13:47:36.109Z,0.97
2018-09-29T13:50:05.483Z,1.03
2018-09-29T13:52:34.333Z,0.90
2018-09-29T13:55:03.109Z,1.13
2018-09-29T13:57:34.334Z,0.70
2018-09-29T14:00:03.291Z,1.00
2018-09-29T14:02:32.112Z,2.40
2018-09-29T14:05:00.913Z,1.10
2018-09-29T14:07:29.697Z,0.80
2018-09-29T14:09:58.565Z,1.13
2018-09-29T14:12:27.325Z,1.40
2018-09-29T14:14:56.297Z,1.13
2018-09-29T14:17:25.918Z,1.10
2018-09-29T14:19:54.702Z,1.10
2018-09-29T14:22:23.737Z,1.07
2018-09-29T14:24:52.522Z,1.27
2018-09-29T14:27:21.287Z,1.17
2018-09-29T14:29:50.189Z,1.20
2018-09-29T14:32:18.989Z,1.20
2018-09-29T14:34:47.918Z,1.00
2018-09-29T14:37:16.713Z,1.13
2018-09-29T14:39:45.587Z,1.07
2018-09-29T14:42:14.489Z,1.33
2018-09-29T14:44:43.261Z,1.53
2018-09-29T14:47:12.119Z,1.67
2018-09-29T14:49:41.359Z,1.23
2018-09-29T14:52:10.218Z,1.27
2018-09-29T14:54:38.999Z,1.30
2018-09-29T14:57:07.837Z,1.30
2018-09-29T14:59:36.660Z,1.53
2018-09-29T15:02:05.561Z,0.90
2018-09-29T15:04:34.486Z,1.40
2018-09-29T15:07:03.379Z,1.00
2018-09-29T15:09:32.170Z,0.90
2018-09-29T15:12:01.027Z,1.30
2018-09-29T15:14:29.878Z,0.90
2018-09-29T15:16:58.678Z,1.37
2018-09-29T15:19:27.476Z,1.50
2018-09-29T15:21:56.363Z,1.17
2018-09-29T15:24:25.193Z,1.30
2018-09-29T15:26:54.007Z,1.10
2018-09-29T15:29:22.819Z,1.47
2018-09-29T15:31:51.615Z,1.17
2018-09-29T15:34:20.376Z,1.23
2018-09-29T15:36:49.497Z,0.90
2018-09-29T15:39:18.338Z,1.10
2018-09-29T15:41:47.120Z,1.07
2018-09-29T15:44:15.995Z,1.37
2018-09-29T15:46:44.823Z,1.17
2018-09-29T15:49:15.138Z,1.20
2018-09-29T15:51:45.323Z,1.10
2018-09-29T15:54:14.106Z,1.47
2018-09-29T15:56:42.953Z,1.20
2018-09-29T15:59:11.882Z,1.23
2018-09-29T16:01:42.259Z,1.77
2018-09-29T16:04:12.034Z,1.27
2018-09-29T16:06:40.872Z,1.57
2018-09-29T16:09:11.409Z,1.60
2018-09-29T16:11:42.160Z,1.20
2018-09-29T16:14:13.676Z,1.40
2018-09-29T16:16:42.708Z,1.60
2018-09-29T16:19:18.158Z,1.10
2018-09-29T16:21:48.706Z,1.60
2018-09-29T16:24:20.530Z,1.37
2018-09-29T16:26:53.089Z,1.33
2018-09-29T16:29:25.884Z,1.37
2018-09-29T16:31:57.392Z,1.23
2018-09-29T16:34:26.179Z,1.10
2018-09-29T16:36:54.987Z,0.90
2018-09-29T16:39:32.224Z,1.23
2018-09-29T16:42:03.267Z,1.03
2018-09-29T16:44:33.596Z,1.53
2018-09-29T16:47:02.473Z,1.10
2018-09-29T16:49:31.242Z,1.23
2018-09-29T16:52:00.101Z,1.10
2018-09-29T16:54:28.873Z,1.10
2018-09-29T16:56:57.649Z,1.37
2018-09-29T16:59:26.844Z,0.83
2018-09-29T17:01:56.239Z,0.80
2018-09-29T17:04:25.230Z,1.30
2018-09-29T17:06:54.171Z,1.10
2018-09-29T17:09:22.977Z,0.90
2018-09-29T17:11:51.776Z,0.87
2018-09-29T17:14:20.890Z,0.90
2018-09-29T17:16:49.655Z,1.47
2018-09-29T17:19:18.454Z,1.07
2018-09-29T17:21:47.377Z,1.67
2018-09-29T17:24:16.194Z,1.23
2018-09-29T17:26:45.450Z,0.80
2018-09-29T17:29:14.279Z,0.80
2018-09-29T17:31:45.063Z,1.00
2018-09-29T17:34:15.830Z,0.90
2018-09-29T17:36:47.546Z,0.90
2018-09-29T17:39:17.980Z,0.87
2018-09-29T17:41:47.066Z,1.40
2018-09-29T17:44:15.884Z,0.73
2018-09-29T17:46:44.685Z,1.07
2018-09-29T17:49:13.496Z,0.90
2018-09-29T17:51:44.375Z,0.80
2018-09-29T17:54:14.335Z,1.00
2018-09-29T17:56:43.286Z,1.27
2018-09-29T17:59:13.199Z,1.00
2018-09-29T18:01:42.019Z,1.10
2018-09-29T18:04:11.035Z,1.13
2018-09-29T18:06:41.472Z,1.20
2018-09-29T18:09:11.877Z,1.00
2018-09-29T18:11:46.500Z,1.00
2018-09-29T18:14:17.053Z,0.90
2018-09-29T18:16:45.952Z,1.10
2018-09-29T18:19:14.896Z,0.97
2018-09-29T18:21:43.707Z,1.17
2018-09-29T18:24:12.591Z,0.87
2018-09-29T18:26:47.870Z,1.20
2018-09-29T18:29:24.524Z,0.80
2018-09-29T18:31:53.309Z,0.63
2018-09-29T18:34:23.081Z,1.60
2018-09-29T18:36:52.007Z,1.13
2018-09-29T18:39:20.822Z,1.07
2018-09-29T18:41:49.662Z,1.03
2018-09-29T18:44:18.830Z,1.63
2018-09-29T18:46:47.649Z,1.00
2018-09-29T18:49:16.988Z,1.13
2018-09-29T18:51:45.973Z,1.10
2018-09-29T18:54:14.717Z,1.00
2018-09-29T18:56:43.527Z,1.00
2018-09-29T18:59:12.392Z,1.17
2018-09-29T19:01:41.196Z,0.90
2018-09-29T19:04:10.111Z,1.10
2018-09-29T19:06:39.102Z,1.00
2018-09-29T19:09:10.063Z,1.43
2018-09-29T19:11:39.710Z,1.30
2018-09-29T19:14:09.809Z,0.77
2018-09-29T19:16:39.595Z,1.17
2018-09-29T19:19:09.514Z,1.03
2018-09-29T19:21:38.345Z,0.70
2018-09-29T19:24:07.340Z,1.07
2018-09-29T19:26:36.456Z,1.00
2018-09-29T19:29:05.317Z,0.87
2018-09-29T19:31:34.427Z,1.10
2018-09-29T19:34:03.175Z,1.20
2018-09-29T19:36:32.151Z,1.13
2018-09-29T19:39:01.018Z,1.10
2018-09-29T19:41:30.110Z,0.73
2018-09-29T19:43:59.013Z,1.00
2018-09-29T19:46:27.784Z,1.37
2018-09-29T19:48:57.730Z,1.10
2018-09-29T19:51:26.660Z,1.40
2018-09-29T19:53:56.336Z,1.20
2018-09-29T19:56:25.684Z,1.60
2018-09-29T19:58:54.506Z,1.10
2018-09-29T20:01:24.429Z,1.30
2018-09-29T20:03:55.453Z,1.37
2018-09-29T20:06:24.315Z,1.67
2018-09-29T20:08:54.307Z,1.30
2018-09-29T20:11:23.931Z,1.10
2018-09-29T20:13:55.672Z,1.20
2018-09-29T20:16:29.225Z,1.07
2018-09-29T20:18:58.148Z,1.53
2018-09-29T20:21:26.949Z,1.60
2018-09-29T20:23:56.757Z,2.13
2018-09-29T20:26:25.787Z,2.03
2018-09-29T20:28:55.634Z,1.30
2018-09-29T20:31:24.781Z,1.80
2018-09-29T20:33:55.289Z,2.07
2018-09-29T20:36:24.749Z,2.00
2018-09-29T20:38:55.339Z,1.60
2018-09-29T20:41:24.754Z,1.20
2018-09-29T20:43:54.785Z,1.67
2018-09-29T20:46:23.741Z,1.57
2018-09-29T20:48:53.346Z,1.30
2018-09-29T20:51:24.971Z,1.17
2018-09-29T20:53:53.987Z,1.40
2018-09-29T20:56:24.709Z,1.57
2018-09-29T20:58:53.720Z,1.23
2018-09-29T21:01:22.656Z,0.90
2018-09-29T21:03:53.975Z,1.10
2018-09-29T21:06:22.901Z,1.63
2018-09-29T21:08:53.837Z,1.40
2018-09-29T21:11:22.786Z,1.20
2018-09-29T21:13:52.894Z,1.20
2018-09-29T21:16:22.028Z,1.60
2018-09-29T21:18:50.966Z,1.20
2018-09-29T21:21:20.524Z,1.60
2018-09-29T21:23:49.726Z,1.53
2018-09-29T21:26:18.835Z,1.57
2018-09-29T21:28:52.292Z,1.00
2018-09-29T21:31:21.449Z,1.43
2018-09-29T21:33:50.226Z,1.53
2018-09-29T21:36:19.079Z,1.80
2018-09-29T21:38:47.935Z,1.37
2018-09-29T21:41:16.709Z,1.63
2018-09-29T21:43:45.558Z,1.50
2018-09-29T21:46:15.178Z,1.67
2018-09-29T21:48:43.952Z,1.47
2018-09-29T21:51:13.643Z,1.00
2018-09-29T21:53:42.414Z,1.23
2018-09-29T21:56:11.404Z,2.00
2018-09-29T21:58:40.224Z,1.63
2018-09-29T22:01:14.951Z,1.17
2018-09-29T22:03:43.842Z,1.03
2018-09-29T22:06:12.686Z,1.50
2018-09-29T22:08:41.458Z,1.20
2018-09-29T22:11:10.411Z,1.43
2018-09-29T22:13:39.202Z,1.30
2018-09-29T22:16:08.168Z,1.90
2018-09-29T22:18:37.026Z,1.73
2018-09-29T22:21:06.364Z,1.50
2018-09-29T22:23:35.117Z,1.73
2018-09-29T22:26:03.953Z,1.70
2018-09-29T22:28:32.744Z,2.00
2018-09-29T22:31:01.529Z,2.20
2018-09-29T22:33:30.508Z,1.60
2018-09-29T22:35:59.328Z,1.70
2018-09-29T22:38:28.197Z,1.97
2018-09-29T22:40:59.070Z,1.47
2018-09-29T22:43:30.573Z,1.63
2018-09-29T22:46:01.952Z,1.30
2018-09-29T22:48:30.757Z,1.80
2018-09-29T22:51:00.439Z,2.33
2018-09-29T22:53:31.277Z,2.50
2018-09-29T22:56:02.568Z,2.30
2018-09-29T22:58:31.347Z,2.10
2018-09-29T23:01:00.104Z,1.90
2018-09-29T23:03:28.884Z,2.07
2018-09-29T23:05:57.711Z,2.23
2018-09-29T23:08:26.476Z,1.90
2018-09-29T23:10:55.292Z,2.13
2018-09-29T23:13:24.241Z,1.63
2018-09-29T23:15:53.014Z,2.57
2018-09-29T23:18:21.832Z,1.77
2018-09-29T23:20:50.677Z,1.63
2018-09-29T23:23:19.454Z,2.00
2018-09-29T23:25:48.371Z,2.47
2018-09-29T23:28:17.205Z,2.80
2018-09-29T23:30:45.995Z,2.67
2018-09-29T23:33:14.830Z,2.70
2018-09-29T23:35:43.623Z,2.50
2018-09-29T23:38:12.438Z,2.00
2018-09-29T23:40:41.418Z,2.13
2018-09-29T23:43:10.238Z,2.10
2018-09-29T23:45:39.050Z,2.80
2018-09-29T23:48:07.863Z,2.10
2018-09-29T23:50:36.665Z,2.50
2018-09-29T23:53:05.488Z,2.50
2018-09-29T23:55:34.268Z,2.83
2018-09-29T23:58:03.094Z,2.10
